createdAt,value
2023-03-21T00:01:57.526Z,9.90
2023-03-21T00:04:25.579Z,9.80
2023-03-21T00:06:52.613Z,9.80
2023-03-21T00:09:22.743Z,9.80
2023-03-21T00:11:49.571Z,9.70
2023-03-21T00:14:18.914Z,9.60
2023-03-21T00:16:50.620Z,9.60
2023-03-21T00:19:19.295Z,9.60
2023-03-21T00:22:08.831Z,9.60
2023-03-21T00:24:39.313Z,9.70
2023-03-21T00:29:55.093Z,9.80
2023-03-21T00:32:22.066Z,9.90
2023-03-21T00:35:02.350Z,9.90
2023-03-21T00:37:36.489Z,10.00
2023-03-21T00:40:08.596Z,9.80
2023-03-21T00:42:35.568Z,9.70
2023-03-21T00:45:06.519Z,9.70
2023-03-21T00:47:33.305Z,9.70
2023-03-21T00:50:00.177Z,9.70
2023-03-21T00:52:40.237Z,9.60
2023-03-21T00:55:10.975Z,9.60
2023-03-21T00:57:39.777Z,9.60
2023-03-21T01:00:10.873Z,9.60
2023-03-21T01:02:43.397Z,9.60
2023-03-21T01:05:12.850Z,9.60
2023-03-21T01:07:42.110Z,9.50
2023-03-21T01:10:14.460Z,9.50
2023-03-21T01:12:43.472Z,9.50
2023-03-21T01:15:10.620Z,9.30
2023-03-21T01:17:37.387Z,9.30
2023-03-21T01:20:06.294Z,9.30
2023-03-21T01:22:33.109Z,9.40
2023-03-21T01:25:12.110Z,9.40
2023-03-21T01:27:46.475Z,9.40
2023-03-21T01:30:19.655Z,9.30
2023-03-21T01:32:50.199Z,9.40
2023-03-21T01:35:17.113Z,9.40
2023-03-21T01:37:46.410Z,9.30
2023-03-21T01:40:17.296Z,9.30
2023-03-21T01:42:46.546Z,9.20
2023-03-21T01:45:52.018Z,9.20
2023-03-21T01:48:19.670Z,9.10
2023-03-21T01:50:46.918Z,9.10
2023-03-21T01:53:14.308Z,9.00
2023-03-21T01:55:41.262Z,8.90
2023-03-21T01:58:09.393Z,8.90
2023-03-21T02:00:36.573Z,8.80
2023-03-21T02:03:13.748Z,8.90
2023-03-21T02:06:00.786Z,8.90
2023-03-21T02:08:38.679Z,9.00
2023-03-21T02:11:10.192Z,9.10
2023-03-21T02:13:37.600Z,9.20
2023-03-21T02:16:46.193Z,9.30
2023-03-21T02:19:37.200Z,9.30
2023-03-21T02:22:20.693Z,9.30
2023-03-21T02:25:00.372Z,9.30
2023-03-21T02:27:34.633Z,9.20
2023-03-21T02:30:14.869Z,9.20
2023-03-21T02:32:47.120Z,9.20
2023-03-21T02:35:35.426Z,9.10
2023-03-21T02:38:04.820Z,9.00
2023-03-21T02:40:57.432Z,9.00
2023-03-21T02:43:37.276Z,8.90
2023-03-21T02:46:16.973Z,8.80
2023-03-21T02:49:11.856Z,8.80
2023-03-21T02:51:39.135Z,8.90
2023-03-21T02:54:41.915Z,8.90
2023-03-21T02:57:01.531Z,8.90
2023-03-21T02:59:28.362Z,8.90
2023-03-21T03:01:55.591Z,9.00
2023-03-21T03:04:31.805Z,9.00
2023-03-21T03:07:10.721Z,9.00
2023-03-21T03:10:01.728Z,9.00
2023-03-21T03:12:58.256Z,9.10
2023-03-21T03:15:51.761Z,9.10
2023-03-21T03:18:26.182Z,9.20
2023-03-21T03:21:10.725Z,9.20
2023-03-21T03:23:45.137Z,9.20
2023-03-21T03:26:20.388Z,9.20
2023-03-21T03:28:50.632Z,9.20
2023-03-21T03:31:31.195Z,9.20
2023-03-21T03:34:00.304Z,9.20
2023-03-21T03:36:35.879Z,9.20
2023-03-21T03:39:06.672Z,9.30
2023-03-21T03:42:00.810Z,9.30
2023-03-21T03:44:39.066Z,9.20
2023-03-21T03:47:17.452Z,9.10
2023-03-21T03:49:49.304Z,9.10
2023-03-21T03:52:22.022Z,9.10
2023-03-21T03:54:49.449Z,9.10
2023-03-21T03:57:18.768Z,9.10
2023-03-21T03:59:45.914Z,9.10
2023-03-21T04:02:13.358Z,9.10
2023-03-21T04:04:42.645Z,9.10
2023-03-21T04:07:09.487Z,9.20
2023-03-21T04:09:44.077Z,9.20
2023-03-21T04:12:12.943Z,9.20
2023-03-21T04:14:45.584Z,9.20
2023-03-21T04:17:14.011Z,9.20
2023-03-21T04:19:43.050Z,9.20
2023-03-21T04:22:12.369Z,9.20
2023-03-21T04:24:39.982Z,9.20
2023-03-21T04:27:06.797Z,9.20
2023-03-21T04:29:33.653Z,9.20
2023-03-21T04:32:01.443Z,9.20
2023-03-21T04:34:30.891Z,9.20
2023-03-21T04:36:57.717Z,9.30
2023-03-21T04:39:24.806Z,9.30
2023-03-21T04:41:51.631Z,9.30
2023-03-21T04:44:18.522Z,9.30
2023-03-21T04:46:45.342Z,9.30
2023-03-21T04:49:14.465Z,9.20
2023-03-21T04:51:41.783Z,9.20
2023-03-21T04:56:36.111Z,9.30
2023-03-21T04:59:06.883Z,9.30
2023-03-21T05:01:34.092Z,9.30
2023-03-21T05:04:01.654Z,9.30
2023-03-21T05:06:28.603Z,9.30
2023-03-21T05:09:01.657Z,9.30
2023-03-21T05:11:31.584Z,9.30
2023-03-21T05:14:01.216Z,9.40
2023-03-21T05:16:31.004Z,9.40
2023-03-21T05:18:59.254Z,9.50
2023-03-21T05:21:29.524Z,9.50
2023-03-21T05:23:58.706Z,9.40
2023-03-21T05:26:25.783Z,9.50
2023-03-21T05:28:55.036Z,9.50
2023-03-21T05:31:24.430Z,9.50
2023-03-21T05:33:51.257Z,9.50
2023-03-21T05:36:18.068Z,9.60
2023-03-21T05:38:47.440Z,9.50
2023-03-21T05:41:19.175Z,9.50
2023-03-21T05:43:46.465Z,9.50
2023-03-21T05:46:13.305Z,9.50
2023-03-21T05:48:40.154Z,9.50
2023-03-21T05:51:06.992Z,9.40
2023-03-21T05:53:36.352Z,9.40
2023-03-21T05:56:03.245Z,9.50
2023-03-21T05:58:30.273Z,9.50
2023-03-21T06:00:57.073Z,9.50
2023-03-21T06:03:26.540Z,9.60
2023-03-21T06:05:53.380Z,9.50
2023-03-21T06:08:20.188Z,9.50
2023-03-21T06:10:46.955Z,9.40
2023-03-21T06:13:13.869Z,9.30
2023-03-21T06:15:43.178Z,9.30
2023-03-21T06:18:12.584Z,9.30
2023-03-21T06:20:39.415Z,9.30
2023-03-21T06:23:08.665Z,9.40
2023-03-21T06:25:35.593Z,9.40
2023-03-21T06:28:02.505Z,9.40
2023-03-21T06:30:29.270Z,9.30
2023-03-21T06:32:58.267Z,9.30
2023-03-21T06:35:29.778Z,9.30
2023-03-21T06:37:58.805Z,9.40
2023-03-21T06:40:25.651Z,9.40
2023-03-21T06:42:52.444Z,9.40
2023-03-21T06:45:19.223Z,9.40
2023-03-21T06:47:46.123Z,9.40
2023-03-21T06:50:13.107Z,9.40
2023-03-21T06:52:42.147Z,9.50
2023-03-21T06:55:11.721Z,9.50
2023-03-21T06:57:40.949Z,9.50
2023-03-21T07:00:09.445Z,9.50
2023-03-21T07:02:38.725Z,9.50
2023-03-21T07:05:06.174Z,9.50
2023-03-21T07:07:32.961Z,9.50
2023-03-21T07:10:01.928Z,9.50
2023-03-21T07:12:28.683Z,9.50
2023-03-21T07:14:55.487Z,9.50
2023-03-21T07:17:24.955Z,9.50
2023-03-21T07:19:52.105Z,10.20
2023-03-21T07:22:21.363Z,9.50
2023-03-21T07:24:55.885Z,9.60
2023-03-21T07:27:29.421Z,9.60
2023-03-21T07:29:58.440Z,9.60
2023-03-21T07:32:30.070Z,9.60
2023-03-21T07:34:56.954Z,9.70
2023-03-21T07:37:26.509Z,9.70
2023-03-21T07:39:53.354Z,9.80
2023-03-21T07:42:20.436Z,9.80
2023-03-21T07:44:49.427Z,9.80
2023-03-21T07:47:16.271Z,9.70
2023-03-21T07:49:43.013Z,9.80
2023-03-21T07:52:09.808Z,9.80
2023-03-21T07:54:36.652Z,9.90
2023-03-21T07:57:04.358Z,10.00
2023-03-21T07:59:31.103Z,10.00
2023-03-21T08:02:00.470Z,10.00
2023-03-21T08:04:28.008Z,10.00
2023-03-21T08:06:54.865Z,10.10
2023-03-21T08:09:24.074Z,10.10
2023-03-21T08:11:52.979Z,10.20
2023-03-21T08:14:21.847Z,10.20
2023-03-21T08:16:48.714Z,10.20
2023-03-21T08:19:16.061Z,10.20
2023-03-21T08:21:45.231Z,10.30
2023-03-21T08:24:12.017Z,10.30
2023-03-21T08:26:38.888Z,10.30
2023-03-21T08:29:06.168Z,10.40
2023-03-21T08:31:35.387Z,10.30
2023-03-21T08:34:02.202Z,10.30
2023-03-21T08:36:30.476Z,10.20
2023-03-21T08:39:05.139Z,10.20
2023-03-21T08:41:32.788Z,10.30
2023-03-21T08:43:59.565Z,10.40
2023-03-21T08:46:26.832Z,10.50
2023-03-21T08:48:54.506Z,10.60
2023-03-21T08:51:21.328Z,10.70
2023-03-21T08:53:50.990Z,10.70
2023-03-21T08:56:18.280Z,10.70
2023-03-21T08:58:47.442Z,10.70
2023-03-21T09:01:15.889Z,10.60
2023-03-21T09:03:45.692Z,10.60
2023-03-21T09:06:14.289Z,10.60
2023-03-21T09:08:42.361Z,10.60
2023-03-21T09:11:09.966Z,10.50
2023-03-21T09:13:39.043Z,10.50
2023-03-21T09:16:08.756Z,10.50
2023-03-21T09:18:48.987Z,10.60
2023-03-21T09:21:16.640Z,10.60
2023-03-21T09:23:46.820Z,10.60
2023-03-21T09:26:17.208Z,10.70
2023-03-21T09:28:44.587Z,10.60
2023-03-21T09:31:12.312Z,10.50
2023-03-21T09:33:42.486Z,10.50
2023-03-21T09:36:14.242Z,10.50
2023-03-21T09:38:45.715Z,10.50
2023-03-21T09:41:12.554Z,10.50
2023-03-21T09:43:43.890Z,10.50
2023-03-21T09:46:31.805Z,10.60
2023-03-21T09:49:02.795Z,10.60
2023-03-21T09:51:33.539Z,10.50
2023-03-21T09:54:02.679Z,10.40
2023-03-21T09:56:31.618Z,10.40
2023-03-21T09:59:01.276Z,10.40
2023-03-21T10:01:35.222Z,10.40
2023-03-21T10:04:09.185Z,10.40
2023-03-21T10:06:39.229Z,10.40
2023-03-21T10:09:13.154Z,10.30
2023-03-21T10:11:47.875Z,10.30
2023-03-21T10:14:17.257Z,10.30
2023-03-21T10:16:45.310Z,10.40
2023-03-21T10:19:15.915Z,10.40
2023-03-21T10:22:03.393Z,10.50
2023-03-21T10:24:34.260Z,10.50
2023-03-21T10:27:03.819Z,10.50
2023-03-21T10:29:42.323Z,10.50
2023-03-21T10:32:19.720Z,10.50
2023-03-21T10:34:50.995Z,10.50
2023-03-21T10:37:20.353Z,10.40
2023-03-21T10:39:48.797Z,10.30
2023-03-21T10:42:24.751Z,10.20
2023-03-21T10:44:53.235Z,10.20
2023-03-21T10:47:26.391Z,10.20
2023-03-21T10:50:07.261Z,10.20
2023-03-21T10:52:37.292Z,10.30
2023-03-21T10:55:08.814Z,10.40
2023-03-21T10:57:38.190Z,10.30
2023-03-21T11:00:15.737Z,10.30
2023-03-21T11:02:44.693Z,10.40
2023-03-21T11:05:20.587Z,10.40
2023-03-21T11:08:06.985Z,10.40
2023-03-21T11:10:35.912Z,10.40
2023-03-21T11:13:06.542Z,10.50
2023-03-21T11:15:47.077Z,10.60
2023-03-21T11:18:19.119Z,10.70
2023-03-21T11:21:05.603Z,10.90
2023-03-21T11:23:35.865Z,11.00
2023-03-21T11:26:09.310Z,11.10
2023-03-21T11:28:44.869Z,11.20
2023-03-21T11:31:11.883Z,11.20
2023-03-21T11:33:59.997Z,11.30
2023-03-21T11:36:39.098Z,11.10
2023-03-21T11:39:15.776Z,11.00
2023-03-21T11:41:50.664Z,11.00
2023-03-21T11:44:27.089Z,11.00
2023-03-21T11:46:56.353Z,11.00
2023-03-21T11:49:23.680Z,11.00
2023-03-21T11:52:13.575Z,11.10
2023-03-21T11:54:59.027Z,11.10
2023-03-21T11:57:31.478Z,11.20
2023-03-21T12:00:01.428Z,11.20
2023-03-21T12:03:06.613Z,11.30
2023-03-21T12:05:40.526Z,11.40
2023-03-21T12:08:15.662Z,11.40
2023-03-21T12:11:11.778Z,11.30
2023-03-21T12:14:03.515Z,11.20
2023-03-21T12:16:43.426Z,11.20
2023-03-21T12:19:49.001Z,11.10
2023-03-21T12:22:25.281Z,11.00
2023-03-21T12:24:55.202Z,11.00
2023-03-21T12:27:24.732Z,11.10
2023-03-21T12:30:10.344Z,11.20
2023-03-21T12:32:57.966Z,11.30
2023-03-21T12:35:30.802Z,11.50
2023-03-21T12:38:04.129Z,11.70
2023-03-21T12:40:46.219Z,11.70
2023-03-21T12:43:33.763Z,11.60
2023-03-21T12:46:03.437Z,11.60
2023-03-21T12:48:38.366Z,11.50
2023-03-21T12:51:07.347Z,11.40
2023-03-21T12:54:20.989Z,11.40
2023-03-21T12:57:11.688Z,11.40
2023-03-21T12:59:41.429Z,11.40
2023-03-21T13:02:23.551Z,11.40
2023-03-21T13:04:55.704Z,11.50
2023-03-21T13:07:27.646Z,11.60
2023-03-21T13:09:55.375Z,11.80
2023-03-21T13:12:46.199Z,11.80
2023-03-21T13:15:39.623Z,11.90
2023-03-21T13:18:47.143Z,11.70
2023-03-21T13:21:25.937Z,11.60
2023-03-21T13:24:01.001Z,11.50
2023-03-21T13:26:38.424Z,11.50
2023-03-21T13:29:21.351Z,11.30
2023-03-21T13:31:51.978Z,11.40
2023-03-21T13:34:22.569Z,11.40
2023-03-21T13:36:50.398Z,11.30
2023-03-21T13:39:19.558Z,11.40
2023-03-21T13:41:48.930Z,11.40
2023-03-21T13:44:22.252Z,11.40
2023-03-21T13:46:55.084Z,11.50
2023-03-21T13:49:35.063Z,11.60
2023-03-21T13:52:11.120Z,11.70
2023-03-21T13:54:56.891Z,11.70
2023-03-21T13:57:38.764Z,11.80
2023-03-21T14:00:30.169Z,11.80
2023-03-21T14:03:10.034Z,11.80
2023-03-21T14:05:37.730Z,11.80
2023-03-21T14:08:24.849Z,11.80
2023-03-21T14:11:01.309Z,11.80
2023-03-21T14:13:29.688Z,11.80
2023-03-21T14:16:06.677Z,11.80
2023-03-21T14:18:53.531Z,11.80
2023-03-21T14:21:24.842Z,11.80
2023-03-21T14:23:58.804Z,11.70
2023-03-21T14:26:30.380Z,11.60
2023-03-21T14:28:57.176Z,11.60
2023-03-21T14:31:24.067Z,11.70
2023-03-21T14:33:56.148Z,11.70
2023-03-21T14:36:34.602Z,11.70
2023-03-21T14:39:07.174Z,11.70
2023-03-21T14:41:34.767Z,11.70
2023-03-21T14:44:25.799Z,11.70
2023-03-21T14:46:54.317Z,11.60
2023-03-21T14:49:29.459Z,11.60
2023-03-21T14:52:00.869Z,11.70
2023-03-21T14:54:27.821Z,11.70
2023-03-21T14:57:04.941Z,11.70
2023-03-21T14:59:38.148Z,11.80
2023-03-21T15:02:40.306Z,11.80
2023-03-21T15:05:22.354Z,11.80
2023-03-21T15:07:56.870Z,11.80
2023-03-21T15:10:24.042Z,11.80
2023-03-21T15:12:51.684Z,11.80
2023-03-21T15:15:18.579Z,11.90
2023-03-21T15:17:47.896Z,12.00
2023-03-21T15:20:15.625Z,12.00
2023-03-21T15:22:46.164Z,12.00
2023-03-21T15:25:17.264Z,12.00
2023-03-21T15:27:44.030Z,12.00
2023-03-21T15:30:23.880Z,11.90
2023-03-21T15:32:51.175Z,11.90
2023-03-21T15:35:28.133Z,11.80
2023-03-21T15:37:56.756Z,11.70
2023-03-21T15:40:26.405Z,11.70
2023-03-21T15:43:19.095Z,11.60
2023-03-21T15:45:50.902Z,11.50
2023-03-21T15:48:21.443Z,11.50
2023-03-21T15:50:57.961Z,11.50
2023-03-21T15:53:24.779Z,11.50
2023-03-21T15:55:53.479Z,11.50
2023-03-21T15:58:24.967Z,11.60
2023-03-21T16:00:56.071Z,11.60
2023-03-21T16:03:27.291Z,11.60
2023-03-21T16:06:17.706Z,11.60
2023-03-21T16:08:49.204Z,11.60
2023-03-21T16:11:25.633Z,11.50
2023-03-21T16:13:53.004Z,11.50
2023-03-21T16:16:21.869Z,11.50
2023-03-21T16:18:48.920Z,11.30
2023-03-21T16:21:17.188Z,11.20
2023-03-21T16:23:44.539Z,11.20
2023-03-21T16:26:16.670Z,11.20
2023-03-21T16:28:44.456Z,11.20
2023-03-21T16:31:16.300Z,11.20
2023-03-21T16:33:43.855Z,11.20
2023-03-21T16:36:15.566Z,11.30
2023-03-21T16:38:44.494Z,11.30
2023-03-21T16:41:12.263Z,11.20
2023-03-21T16:43:44.823Z,11.20
2023-03-21T16:46:24.512Z,11.20
2023-03-21T16:48:57.748Z,11.20
2023-03-21T16:51:29.345Z,11.20
2023-03-21T16:53:58.667Z,11.10
2023-03-21T16:56:27.805Z,11.10
2023-03-21T16:58:55.303Z,11.00
2023-03-21T17:01:26.052Z,11.10
2023-03-21T17:03:53.013Z,11.00
2023-03-21T17:06:24.474Z,11.00
2023-03-21T17:08:56.181Z,11.00
2023-03-21T17:11:23.772Z,11.00
2023-03-21T17:13:53.512Z,11.00
2023-03-21T17:16:22.462Z,11.00
2023-03-21T17:18:50.208Z,11.00
2023-03-21T17:21:24.886Z,10.90
2023-03-21T17:23:54.267Z,10.90
2023-03-21T17:26:29.967Z,10.80
2023-03-21T17:28:57.030Z,10.80
2023-03-21T17:31:27.276Z,10.80
2023-03-21T17:33:54.186Z,10.80
2023-03-21T17:36:28.623Z,10.80
2023-03-21T17:38:55.644Z,10.70
2023-03-21T17:41:24.553Z,10.70
2023-03-21T17:43:53.621Z,10.60
2023-03-21T17:46:22.321Z,10.60
2023-03-21T17:48:52.004Z,10.60
2023-03-21T17:51:19.231Z,10.50
2023-03-21T17:53:47.310Z,10.40
2023-03-21T17:56:30.818Z,10.40
2023-03-21T17:59:09.939Z,10.40
2023-03-21T18:01:36.756Z,10.40
2023-03-21T18:04:05.184Z,10.50
2023-03-21T18:06:33.974Z,10.50
2023-03-21T18:09:07.150Z,10.40
2023-03-21T18:11:37.156Z,10.40
2023-03-21T18:14:15.714Z,10.40
2023-03-21T18:16:44.845Z,10.40
2023-03-21T18:19:13.255Z,10.40
2023-03-21T18:21:45.466Z,10.40
2023-03-21T18:24:13.281Z,10.40
2023-03-21T18:26:47.280Z,10.40
2023-03-21T18:32:07.751Z,10.40
2023-03-21T18:34:38.727Z,10.40
2023-03-21T18:37:07.978Z,10.30
2023-03-21T18:39:38.102Z,10.30
2023-03-21T18:42:06.484Z,10.20
2023-03-21T18:44:37.431Z,10.20
2023-03-21T18:47:07.641Z,10.20
2023-03-21T18:52:23.948Z,10.20
2023-03-21T18:54:50.710Z,10.10
2023-03-21T18:57:35.816Z,10.10
2023-03-21T19:00:17.022Z,10.00
2023-03-21T19:02:47.783Z,10.00
2023-03-21T19:05:20.958Z,10.00
2023-03-21T19:07:48.190Z,9.90
2023-03-21T19:10:20.286Z,9.90
2023-03-21T19:12:51.735Z,9.90
2023-03-21T19:15:21.950Z,9.80
2023-03-21T19:20:43.255Z,9.80
2023-03-21T19:23:10.854Z,9.70
2023-03-21T19:25:38.026Z,9.70
2023-03-21T19:28:05.062Z,9.70
2023-03-21T19:30:31.907Z,9.70
2023-03-21T19:32:58.726Z,9.60
2023-03-21T19:35:25.733Z,9.70
2023-03-21T19:37:52.598Z,9.70
2023-03-21T19:40:19.906Z,9.70
2023-03-21T19:42:46.697Z,9.70
2023-03-21T19:45:13.480Z,9.50
2023-03-21T19:47:40.374Z,9.50
2023-03-21T19:52:58.982Z,9.50
2023-03-21T19:55:28.557Z,9.50
2023-03-21T19:57:57.466Z,9.50
2023-03-21T20:00:24.373Z,9.30
2023-03-21T20:02:53.408Z,9.20
2023-03-21T20:05:22.040Z,9.10
2023-03-21T20:07:53.516Z,9.10
2023-03-21T20:10:20.464Z,9.00
2023-03-21T20:12:47.558Z,9.00
2023-03-21T20:15:20.790Z,9.00
2023-03-21T20:17:49.192Z,8.90
2023-03-21T20:20:18.251Z,8.90
2023-03-21T20:23:07.775Z,8.90
2023-03-21T20:25:39.800Z,8.90
2023-03-21T20:28:15.634Z,8.90
2023-03-21T20:30:50.559Z,8.90
2023-03-21T20:33:17.749Z,8.90
2023-03-21T20:38:35.723Z,8.90
2023-03-21T20:41:03.785Z,8.90
2023-03-21T20:46:22.446Z,8.80
2023-03-21T20:48:49.762Z,8.80
2023-03-21T20:52:27.513Z,8.80
2023-03-21T20:54:06.043Z,8.80
2023-03-21T20:56:33.006Z,8.80
2023-03-21T20:59:15.263Z,8.80
2023-03-21T21:01:45.423Z,8.90
2023-03-21T21:04:20.071Z,8.80
2023-03-21T21:06:48.107Z,8.80
2023-03-21T21:09:15.072Z,8.80
2023-03-21T21:12:07.153Z,8.80
2023-03-21T21:14:30.786Z,8.80
2023-03-21T21:16:58.914Z,8.80
2023-03-21T21:19:26.126Z,8.80
2023-03-21T21:21:55.479Z,8.80
2023-03-21T21:24:22.320Z,8.80
2023-03-21T21:26:51.602Z,8.70
2023-03-21T21:29:18.455Z,8.70
2023-03-21T21:31:52.108Z,8.70
2023-03-21T21:34:21.690Z,8.70
2023-03-21T21:36:51.339Z,8.60
2023-03-21T21:39:21.950Z,8.60
2023-03-21T21:41:48.810Z,8.40
2023-03-21T21:44:15.727Z,8.40
2023-03-21T21:46:42.712Z,8.20
2023-03-21T21:49:11.826Z,8.20
2023-03-21T21:51:41.936Z,8.10
2023-03-21T21:54:08.778Z,8.10
2023-03-21T21:56:37.836Z,8.10
2023-03-21T21:59:05.529Z,8.20
2023-03-21T22:01:38.649Z,8.20
2023-03-21T22:04:10.841Z,8.30
2023-03-21T22:06:37.739Z,8.30
2023-03-21T22:09:06.979Z,8.30
2023-03-21T22:11:33.976Z,8.30
2023-03-21T22:14:03.064Z,8.40
2023-03-21T22:16:29.924Z,8.40
2023-03-21T22:18:56.798Z,8.30
2023-03-21T22:21:23.671Z,8.30
2023-03-21T22:23:50.676Z,8.40
2023-03-21T22:26:17.577Z,8.30
2023-03-21T22:28:46.625Z,8.30
2023-03-21T22:31:16.245Z,8.30
2023-03-21T22:33:43.787Z,8.30
2023-03-21T22:36:10.852Z,8.30
2023-03-21T22:38:38.287Z,8.20
2023-03-21T22:41:05.784Z,8.10
2023-03-21T22:43:34.341Z,7.90
2023-03-21T22:46:04.752Z,7.80
2023-03-21T22:48:31.755Z,7.70
2023-03-21T22:50:58.910Z,7.70
2023-03-21T22:53:28.264Z,7.80
2023-03-21T22:55:57.897Z,7.80
2023-03-21T22:58:24.757Z,7.80
2023-03-21T23:00:51.985Z,7.80
2023-03-21T23:03:18.851Z,7.90
2023-03-21T23:05:45.836Z,7.80
2023-03-21T23:08:16.039Z,7.90
2023-03-21T23:10:46.083Z,7.90
2023-03-21T23:13:12.888Z,7.90
2023-03-21T23:15:39.741Z,7.90
2023-03-21T23:18:06.762Z,7.90
2023-03-21T23:20:33.622Z,7.90
2023-03-21T23:23:05.044Z,7.90
2023-03-21T23:25:33.635Z,7.90
2023-03-21T23:28:00.968Z,7.90
2023-03-21T23:30:27.733Z,7.90
2023-03-21T23:32:54.502Z,7.80
2023-03-21T23:35:21.348Z,7.80
2023-03-21T23:37:50.127Z,7.80
2023-03-21T23:40:17.002Z,7.80
2023-03-21T23:42:43.796Z,7.80
2023-03-21T23:45:11.039Z,7.80
2023-03-21T23:47:37.853Z,7.70
2023-03-21T23:50:07.804Z,7.70
2023-03-21T23:52:37.081Z,7.70
2023-03-21T23:55:05.715Z,7.70
2023-03-21T23:57:32.571Z,7.70
2023-03-21T23:59:59.465Z,7.60
